sensor_id;sensor_type;location;lat;lon;timestamp;temperature;humidity
19025;DHT22;9645;51.448;6.260;2023-03-12T00:00:06;2.60;99.90
19025;DHT22;9645;51.448;6.260;2023-03-12T00:02:35;2.60;99.90
19025;DHT22;9645;51.448;6.260;2023-03-12T00:05:02;2.60;99.90
19025;DHT22;9645;51.448;6.260;2023-03-12T00:07:29;2.60;99.90
19025;DHT22;9645;51.448;6.260;2023-03-12T00:09:56;2.60;99.90
19025;DHT22;9645;51.448;6.260;2023-03-12T00:12:24;2.80;99.90
19025;DHT22;9645;51.448;6.260;2023-03-12T00:14:51;2.70;99.90
19025;DHT22;9645;51.448;6.260;2023-03-12T00:17:18;2.70;99.90
19025;DHT22;9645;51.448;6.260;2023-03-12T00:19:45;2.70;99.90
19025;DHT22;9645;51.448;6.260;2023-03-12T00:22:16;2.80;99.90
19025;DHT22;9645;51.448;6.260;2023-03-12T00:24:49;2.80;99.90
19025;DHT22;9645;51.448;6.260;2023-03-12T00:27:16;2.80;99.90
19025;DHT22;9645;51.448;6.260;2023-03-12T00:29:45;2.70;99.90
19025;DHT22;9645;51.448;6.260;2023-03-12T00:32:12;2.70;99.90
19025;DHT22;9645;51.448;6.260;2023-03-12T00:34:39;2.70;99.90
19025;DHT22;9645;51.448;6.260;2023-03-12T00:37:06;2.70;99.90
19025;DHT22;9645;51.448;6.260;2023-03-12T00:39:33;1.80;99.90
19025;DHT22;9645;51.448;6.260;2023-03-12T00:42:00;2.60;99.90
19025;DHT22;9645;51.448;6.260;2023-03-12T00:44:27;2.70;99.90
19025;DHT22;9645;51.448;6.260;2023-03-12T00:46:55;2.60;99.90
19025;DHT22;9645;51.448;6.260;2023-03-12T00:49:22;2.60;99.90
19025;DHT22;9645;51.448;6.260;2023-03-12T00:51:49;2.60;99.90
19025;DHT22;9645;51.448;6.260;2023-03-12T00:54:16;2.60;99.90
19025;DHT22;9645;51.448;6.260;2023-03-12T00:56:43;2.60;99.90
19025;DHT22;9645;51.448;6.260;2023-03-12T00:59:11;2.60;99.90
19025;DHT22;9645;51.448;6.260;2023-03-12T01:01:38;2.60;99.90
19025;DHT22;9645;51.448;6.260;2023-03-12T01:04:06;2.50;99.90
19025;DHT22;9645;51.448;6.260;2023-03-12T01:06:34;2.50;99.90
19025;DHT22;9645;51.448;6.260;2023-03-12T01:09:01;2.60;99.90
19025;DHT22;9645;51.448;6.260;2023-03-12T01:11:30;2.60;99.90
19025;DHT22;9645;51.448;6.260;2023-03-12T01:13:57;2.60;99.90
19025;DHT22;9645;51.448;6.260;2023-03-12T01:16:24;2.60;99.90
19025;DHT22;9645;51.448;6.260;2023-03-12T01:18:54;2.50;99.90
19025;DHT22;9645;51.448;6.260;2023-03-12T01:21:23;2.60;99.90
19025;DHT22;9645;51.448;6.260;2023-03-12T01:23:51;2.50;99.90
19025;DHT22;9645;51.448;6.260;2023-03-12T01:26:18;2.50;99.90
19025;DHT22;9645;51.448;6.260;2023-03-12T01:28:45;2.50;99.90
19025;DHT22;9645;51.448;6.260;2023-03-12T01:31:14;2.50;99.90
19025;DHT22;9645;51.448;6.260;2023-03-12T01:33:41;2.50;99.90
19025;DHT22;9645;51.448;6.260;2023-03-12T01:36:15;2.50;99.90
19025;DHT22;9645;51.448;6.260;2023-03-12T01:38:43;2.50;99.90
19025;DHT22;9645;51.448;6.260;2023-03-12T01:41:10;2.40;99.90
19025;DHT22;9645;51.448;6.260;2023-03-12T01:43:38;2.50;99.90
19025;DHT22;9645;51.448;6.260;2023-03-12T01:46:20;2.40;99.90
19025;DHT22;9645;51.448;6.260;2023-03-12T01:48:52;2.50;99.90
19025;DHT22;9645;51.448;6.260;2023-03-12T01:51:20;2.40;99.90
19025;DHT22;9645;51.448;6.260;2023-03-12T01:53:50;2.40;99.90
19025;DHT22;9645;51.448;6.260;2023-03-12T01:56:20;2.40;99.90
19025;DHT22;9645;51.448;6.260;2023-03-12T01:58:51;2.40;99.90
19025;DHT22;9645;51.448;6.260;2023-03-12T02:01:21;2.40;99.90
19025;DHT22;9645;51.448;6.260;2023-03-12T02:03:50;2.30;99.90
19025;DHT22;9645;51.448;6.260;2023-03-12T02:06:21;2.30;99.90
19025;DHT22;9645;51.448;6.260;2023-03-12T02:08:50;2.30;99.90
19025;DHT22;9645;51.448;6.260;2023-03-12T02:11:17;2.30;99.90
19025;DHT22;9645;51.448;6.260;2023-03-12T02:13:44;2.30;99.90
19025;DHT22;9645;51.448;6.260;2023-03-12T02:16:12;2.30;99.90
19025;DHT22;9645;51.448;6.260;2023-03-12T02:18:39;2.30;99.90
19025;DHT22;9645;51.448;6.260;2023-03-12T02:21:13;2.30;99.90
19025;DHT22;9645;51.448;6.260;2023-03-12T02:23:46;2.30;99.90
19025;DHT22;9645;51.448;6.260;2023-03-12T02:26:16;1.40;99.90
19025;DHT22;9645;51.448;6.260;2023-03-12T02:28:44;2.20;99.90
19025;DHT22;9645;51.448;6.260;2023-03-12T02:31:13;2.30;99.90
19025;DHT22;9645;51.448;6.260;2023-03-12T02:33:41;2.30;99.90
19025;DHT22;9645;51.448;6.260;2023-03-12T02:36:08;2.30;99.90
19025;DHT22;9645;51.448;6.260;2023-03-12T02:38:39;2.30;99.90
19025;DHT22;9645;51.448;6.260;2023-03-12T02:41:12;2.30;99.90
19025;DHT22;9645;51.448;6.260;2023-03-12T02:43:43;2.30;99.90
19025;DHT22;9645;51.448;6.260;2023-03-12T02:46:11;2.20;99.90
19025;DHT22;9645;51.448;6.260;2023-03-12T02:48:39;2.20;99.90
19025;DHT22;9645;51.448;6.260;2023-03-12T02:51:07;2.20;99.90
19025;DHT22;9645;51.448;6.260;2023-03-12T02:53:34;2.20;99.90
19025;DHT22;9645;51.448;6.260;2023-03-12T02:56:01;2.10;99.90
19025;DHT22;9645;51.448;6.260;2023-03-12T02:58:29;2.10;99.90
19025;DHT22;9645;51.448;6.260;2023-03-12T03:01:00;2.10;99.90
19025;DHT22;9645;51.448;6.260;2023-03-12T03:03:28;2.00;99.90
19025;DHT22;9645;51.448;6.260;2023-03-12T03:05:55;2.00;99.90
19025;DHT22;9645;51.448;6.260;2023-03-12T03:08:23;2.00;99.90
19025;DHT22;9645;51.448;6.260;2023-03-12T03:10:53;2.00;99.90
19025;DHT22;9645;51.448;6.260;2023-03-12T03:13:28;2.00;99.90
19025;DHT22;9645;51.448;6.260;2023-03-12T03:15:58;2.10;99.90
19025;DHT22;9645;51.448;6.260;2023-03-12T03:18:27;2.10;99.90
19025;DHT22;9645;51.448;6.260;2023-03-12T03:20:57;2.10;99.90
19025;DHT22;9645;51.448;6.260;2023-03-12T03:23:25;2.10;99.90
19025;DHT22;9645;51.448;6.260;2023-03-12T03:25:52;2.10;99.90
19025;DHT22;9645;51.448;6.260;2023-03-12T03:28:21;2.10;99.90
19025;DHT22;9645;51.448;6.260;2023-03-12T03:30:52;2.10;99.90
19025;DHT22;9645;51.448;6.260;2023-03-12T03:33:21;2.10;99.90
19025;DHT22;9645;51.448;6.260;2023-03-12T03:35:49;2.10;99.90
19025;DHT22;9645;51.448;6.260;2023-03-12T03:38:16;2.10;99.90
19025;DHT22;9645;51.448;6.260;2023-03-12T03:40:43;2.00;99.90
19025;DHT22;9645;51.448;6.260;2023-03-12T03:43:10;2.10;99.90
19025;DHT22;9645;51.448;6.260;2023-03-12T03:45:37;2.10;99.90
19025;DHT22;9645;51.448;6.260;2023-03-12T03:48:05;2.10;99.90
19025;DHT22;9645;51.448;6.260;2023-03-12T03:50:33;2.10;99.90
19025;DHT22;9645;51.448;6.260;2023-03-12T03:53:00;2.10;99.90
19025;DHT22;9645;51.448;6.260;2023-03-12T03:55:27;2.10;99.90
19025;DHT22;9645;51.448;6.260;2023-03-12T03:57:54;2.20;99.90
19025;DHT22;9645;51.448;6.260;2023-03-12T04:00:21;2.20;99.90
19025;DHT22;9645;51.448;6.260;2023-03-12T04:02:48;2.20;99.90
19025;DHT22;9645;51.448;6.260;2023-03-12T04:05:15;2.20;99.90
19025;DHT22;9645;51.448;6.260;2023-03-12T04:07:45;2.60;99.90
19025;DHT22;9645;51.448;6.260;2023-03-12T04:10:12;2.20;99.90
19025;DHT22;9645;51.448;6.260;2023-03-12T04:12:39;2.20;99.90
19025;DHT22;9645;51.448;6.260;2023-03-12T04:15:07;2.20;99.90
19025;DHT22;9645;51.448;6.260;2023-03-12T04:17:34;2.30;99.90
19025;DHT22;9645;51.448;6.260;2023-03-12T04:20:01;2.30;99.90
19025;DHT22;9645;51.448;6.260;2023-03-12T04:22:31;2.40;99.90
19025;DHT22;9645;51.448;6.260;2023-03-12T04:25:00;2.40;99.90
19025;DHT22;9645;51.448;6.260;2023-03-12T04:27:27;2.30;99.90
19025;DHT22;9645;51.448;6.260;2023-03-12T04:29:54;2.30;99.90
19025;DHT22;9645;51.448;6.260;2023-03-12T04:32:21;2.30;99.90
19025;DHT22;9645;51.448;6.260;2023-03-12T04:34:48;3.80;99.90
19025;DHT22;9645;51.448;6.260;2023-03-12T04:37:15;2.30;99.90
19025;DHT22;9645;51.448;6.260;2023-03-12T04:39:42;2.30;99.90
19025;DHT22;9645;51.448;6.260;2023-03-12T04:42:12;2.40;99.90
19025;DHT22;9645;51.448;6.260;2023-03-12T04:44:39;2.30;99.90
19025;DHT22;9645;51.448;6.260;2023-03-12T04:47:06;2.30;99.90
19025;DHT22;9645;51.448;6.260;2023-03-12T04:49:33;2.30;99.90
19025;DHT22;9645;51.448;6.260;2023-03-12T04:52:00;2.30;99.90
19025;DHT22;9645;51.448;6.260;2023-03-12T04:54:27;2.30;99.90
19025;DHT22;9645;51.448;6.260;2023-03-12T04:56:56;2.30;99.90
19025;DHT22;9645;51.448;6.260;2023-03-12T04:59:24;2.40;99.90
19025;DHT22;9645;51.448;6.260;2023-03-12T05:01:51;3.30;99.90
19025;DHT22;9645;51.448;6.260;2023-03-12T05:04:18;2.40;99.90
19025;DHT22;9645;51.448;6.260;2023-03-12T05:06:45;2.30;99.90
19025;DHT22;9645;51.448;6.260;2023-03-12T05:09:12;2.30;99.90
19025;DHT22;9645;51.448;6.260;2023-03-12T05:11:39;2.30;99.90
19025;DHT22;9645;51.448;6.260;2023-03-12T05:14:06;3.10;99.90
19025;DHT22;9645;51.448;6.260;2023-03-12T05:16:34;2.30;99.90
19025;DHT22;9645;51.448;6.260;2023-03-12T05:19:01;2.30;99.90
19025;DHT22;9645;51.448;6.260;2023-03-12T05:21:29;2.30;99.90
19025;DHT22;9645;51.448;6.260;2023-03-12T05:23:56;2.30;99.90
19025;DHT22;9645;51.448;6.260;2023-03-12T05:26:25;2.30;99.90
19025;DHT22;9645;51.448;6.260;2023-03-12T05:28:53;2.20;99.90
19025;DHT22;9645;51.448;6.260;2023-03-12T05:31:20;2.20;99.90
19025;DHT22;9645;51.448;6.260;2023-03-12T05:33:49;2.20;99.90
19025;DHT22;9645;51.448;6.260;2023-03-12T05:36:16;2.30;99.90
19025;DHT22;9645;51.448;6.260;2023-03-12T05:38:43;2.40;99.90
19025;DHT22;9645;51.448;6.260;2023-03-12T05:41:15;2.30;99.90
19025;DHT22;9645;51.448;6.260;2023-03-12T05:43:43;2.40;99.90
19025;DHT22;9645;51.448;6.260;2023-03-12T05:46:10;2.30;99.90
19025;DHT22;9645;51.448;6.260;2023-03-12T05:48:37;2.30;99.90
19025;DHT22;9645;51.448;6.260;2023-03-12T05:51:05;2.30;99.90
19025;DHT22;9645;51.448;6.260;2023-03-12T05:53:32;2.30;99.90
19025;DHT22;9645;51.448;6.260;2023-03-12T05:56:02;2.40;99.90
19025;DHT22;9645;51.448;6.260;2023-03-12T05:58:29;2.30;99.90
19025;DHT22;9645;51.448;6.260;2023-03-12T06:00:56;2.40;99.90
19025;DHT22;9645;51.448;6.260;2023-03-12T06:03:23;2.40;99.90
19025;DHT22;9645;51.448;6.260;2023-03-12T06:05:50;2.40;99.90
19025;DHT22;9645;51.448;6.260;2023-03-12T06:08:21;2.40;99.90
19025;DHT22;9645;51.448;6.260;2023-03-12T06:10:49;2.50;99.90
19025;DHT22;9645;51.448;6.260;2023-03-12T06:13:17;2.50;99.90
19025;DHT22;9645;51.448;6.260;2023-03-12T06:15:44;2.50;99.90
19025;DHT22;9645;51.448;6.260;2023-03-12T06:18:11;2.60;99.90
19025;DHT22;9645;51.448;6.260;2023-03-12T06:20:38;2.60;99.90
19025;DHT22;9645;51.448;6.260;2023-03-12T06:23:05;2.60;99.90
19025;DHT22;9645;51.448;6.260;2023-03-12T06:25:33;2.60;99.90
19025;DHT22;9645;51.448;6.260;2023-03-12T06:28:00;2.60;99.90
19025;DHT22;9645;51.448;6.260;2023-03-12T06:30:28;2.60;99.90
19025;DHT22;9645;51.448;6.260;2023-03-12T06:32:54;2.70;99.90
19025;DHT22;9645;51.448;6.260;2023-03-12T06:35:21;2.60;99.90
19025;DHT22;9645;51.448;6.260;2023-03-12T06:37:49;2.60;99.90
19025;DHT22;9645;51.448;6.260;2023-03-12T06:40:16;2.70;99.90
19025;DHT22;9645;51.448;6.260;2023-03-12T06:42:44;2.70;99.90
19025;DHT22;9645;51.448;6.260;2023-03-12T06:45:11;2.80;99.90
19025;DHT22;9645;51.448;6.260;2023-03-12T06:47:38;2.70;99.90
19025;DHT22;9645;51.448;6.260;2023-03-12T06:50:05;2.70;99.90
19025;DHT22;9645;51.448;6.260;2023-03-12T06:52:32;2.80;99.90
19025;DHT22;9645;51.448;6.260;2023-03-12T06:54:59;2.80;99.90
19025;DHT22;9645;51.448;6.260;2023-03-12T06:57:26;2.80;99.90
19025;DHT22;9645;51.448;6.260;2023-03-12T06:59:55;2.80;99.90
19025;DHT22;9645;51.448;6.260;2023-03-12T07:02:22;2.80;99.90
19025;DHT22;9645;51.448;6.260;2023-03-12T07:04:48;2.90;99.90
19025;DHT22;9645;51.448;6.260;2023-03-12T07:07:15;2.90;99.90
19025;DHT22;9645;51.448;6.260;2023-03-12T07:09:44;2.90;99.90
19025;DHT22;9645;51.448;6.260;2023-03-12T07:12:11;2.90;99.90
19025;DHT22;9645;51.448;6.260;2023-03-12T07:14:38;3.00;99.90
19025;DHT22;9645;51.448;6.260;2023-03-12T07:17:06;3.00;99.90
19025;DHT22;9645;51.448;6.260;2023-03-12T07:19:33;3.00;99.90
19025;DHT22;9645;51.448;6.260;2023-03-12T07:22:01;3.00;99.90
19025;DHT22;9645;51.448;6.260;2023-03-12T07:24:28;3.00;99.90
19025;DHT22;9645;51.448;6.260;2023-03-12T07:26:54;3.20;99.90
19025;DHT22;9645;51.448;6.260;2023-03-12T07:29:21;3.10;99.90
19025;DHT22;9645;51.448;6.260;2023-03-12T07:31:48;3.10;99.90
19025;DHT22;9645;51.448;6.260;2023-03-12T07:34:17;3.10;99.90
19025;DHT22;9645;51.448;6.260;2023-03-12T07:36:44;3.20;99.90
19025;DHT22;9645;51.448;6.260;2023-03-12T07:39:11;3.30;99.90
19025;DHT22;9645;51.448;6.260;2023-03-12T07:41:38;3.40;99.90
19025;DHT22;9645;51.448;6.260;2023-03-12T07:44:05;3.40;99.90
19025;DHT22;9645;51.448;6.260;2023-03-12T07:46:32;3.40;99.90
19025;DHT22;9645;51.448;6.260;2023-03-12T07:48:59;3.40;99.90
19025;DHT22;9645;51.448;6.260;2023-03-12T07:51:28;3.40;99.90
19025;DHT22;9645;51.448;6.260;2023-03-12T07:53:55;3.50;99.90
19025;DHT22;9645;51.448;6.260;2023-03-12T07:56:22;3.50;99.90
19025;DHT22;9645;51.448;6.260;2023-03-12T07:58:49;3.50;99.90
19025;DHT22;9645;51.448;6.260;2023-03-12T08:01:16;3.60;99.90
19025;DHT22;9645;51.448;6.260;2023-03-12T08:03:43;3.60;99.90
19025;DHT22;9645;51.448;6.260;2023-03-12T08:06:10;3.80;99.90
19025;DHT22;9645;51.448;6.260;2023-03-12T08:08:38;3.90;99.90
19025;DHT22;9645;51.448;6.260;2023-03-12T08:11:07;4.00;99.90
19025;DHT22;9645;51.448;6.260;2023-03-12T08:13:34;3.90;99.90
19025;DHT22;9645;51.448;6.260;2023-03-12T08:16:02;3.90;99.90
19025;DHT22;9645;51.448;6.260;2023-03-12T08:18:28;3.90;99.90
19025;DHT22;9645;51.448;6.260;2023-03-12T08:20:56;3.80;99.90
19025;DHT22;9645;51.448;6.260;2023-03-12T08:23:23;3.90;99.90
19025;DHT22;9645;51.448;6.260;2023-03-12T08:25:55;3.90;99.90
19025;DHT22;9645;51.448;6.260;2023-03-12T08:28:24;3.90;99.90
19025;DHT22;9645;51.448;6.260;2023-03-12T08:30:52;4.00;99.90
19025;DHT22;9645;51.448;6.260;2023-03-12T08:33:19;4.00;99.90
19025;DHT22;9645;51.448;6.260;2023-03-12T08:35:48;4.00;99.90
19025;DHT22;9645;51.448;6.260;2023-03-12T08:38:15;4.10;99.90
19025;DHT22;9645;51.448;6.260;2023-03-12T08:40:42;4.20;99.90
19025;DHT22;9645;51.448;6.260;2023-03-12T08:43:14;4.20;99.90
19025;DHT22;9645;51.448;6.260;2023-03-12T08:45:42;4.30;99.90
19025;DHT22;9645;51.448;6.260;2023-03-12T08:48:09;4.30;99.90
19025;DHT22;9645;51.448;6.260;2023-03-12T08:50:36;4.30;99.90
19025;DHT22;9645;51.448;6.260;2023-03-12T08:53:03;4.40;99.90
19025;DHT22;9645;51.448;6.260;2023-03-12T08:55:30;4.40;99.90
19025;DHT22;9645;51.448;6.260;2023-03-12T08:57:57;4.40;99.90
19025;DHT22;9645;51.448;6.260;2023-03-12T09:00:28;4.50;99.90
19025;DHT22;9645;51.448;6.260;2023-03-12T09:02:55;4.60;99.90
19025;DHT22;9645;51.448;6.260;2023-03-12T09:05:23;4.60;99.90
19025;DHT22;9645;51.448;6.260;2023-03-12T09:07:50;4.60;99.90
19025;DHT22;9645;51.448;6.260;2023-03-12T09:10:17;4.70;99.90
19025;DHT22;9645;51.448;6.260;2023-03-12T09:12:44;4.70;99.90
19025;DHT22;9645;51.448;6.260;2023-03-12T09:15:11;4.60;99.90
19025;DHT22;9645;51.448;6.260;2023-03-12T09:17:39;4.60;99.90
19025;DHT22;9645;51.448;6.260;2023-03-12T09:20:08;4.60;99.90
19025;DHT22;9645;51.448;6.260;2023-03-12T09:22:38;4.70;99.90
19025;DHT22;9645;51.448;6.260;2023-03-12T09:25:08;4.80;99.90
19025;DHT22;9645;51.448;6.260;2023-03-12T09:27:36;4.80;99.90
19025;DHT22;9645;51.448;6.260;2023-03-12T09:30:04;4.80;99.90
19025;DHT22;9645;51.448;6.260;2023-03-12T09:32:32;4.70;99.90
19025;DHT22;9645;51.448;6.260;2023-03-12T09:35:00;4.90;99.90
19025;DHT22;9645;51.448;6.260;2023-03-12T09:37:27;5.00;99.90
19025;DHT22;9645;51.448;6.260;2023-03-12T09:39:57;5.00;99.90
19025;DHT22;9645;51.448;6.260;2023-03-12T09:42:26;5.00;99.90
19025;DHT22;9645;51.448;6.260;2023-03-12T09:44:57;5.00;99.90
19025;DHT22;9645;51.448;6.260;2023-03-12T09:47:28;5.10;99.90
19025;DHT22;9645;51.448;6.260;2023-03-12T09:50:00;5.20;99.90
19025;DHT22;9645;51.448;6.260;2023-03-12T09:52:31;5.20;99.90
19025;DHT22;9645;51.448;6.260;2023-03-12T09:55:02;5.30;99.90
19025;DHT22;9645;51.448;6.260;2023-03-12T09:57:33;5.30;99.90
19025;DHT22;9645;51.448;6.260;2023-03-12T10:00:00;5.40;99.90
19025;DHT22;9645;51.448;6.260;2023-03-12T10:02:53;5.50;99.90
19025;DHT22;9645;51.448;6.260;2023-03-12T10:05:34;5.60;99.90
19025;DHT22;9645;51.448;6.260;2023-03-12T10:08:05;5.70;99.90
19025;DHT22;9645;51.448;6.260;2023-03-12T10:10:47;5.80;99.90
19025;DHT22;9645;51.448;6.260;2023-03-12T10:13:24;5.90;99.90
19025;DHT22;9645;51.448;6.260;2023-03-12T10:16:04;6.10;99.90
19025;DHT22;9645;51.448;6.260;2023-03-12T10:18:55;6.30;99.90
19025;DHT22;9645;51.448;6.260;2023-03-12T10:21:29;6.40;99.90
19025;DHT22;9645;51.448;6.260;2023-03-12T10:24:15;6.60;99.90
19025;DHT22;9645;51.448;6.260;2023-03-12T10:26:48;6.70;99.90
19025;DHT22;9645;51.448;6.260;2023-03-12T10:29:18;7.60;99.90
19025;DHT22;9645;51.448;6.260;2023-03-12T10:31:52;6.80;99.90
19025;DHT22;9645;51.448;6.260;2023-03-12T10:34:27;6.90;99.90
19025;DHT22;9645;51.448;6.260;2023-03-12T10:36:59;7.00;99.90
19025;DHT22;9645;51.448;6.260;2023-03-12T10:39:28;7.00;99.90
19025;DHT22;9645;51.448;6.260;2023-03-12T10:41:55;7.10;99.90
19025;DHT22;9645;51.448;6.260;2023-03-12T10:44:26;7.20;99.90
19025;DHT22;9645;51.448;6.260;2023-03-12T10:47:02;7.30;99.90
19025;DHT22;9645;51.448;6.260;2023-03-12T10:49:33;7.50;99.90
19025;DHT22;9645;51.448;6.260;2023-03-12T10:52:05;7.70;99.90
19025;DHT22;9645;51.448;6.260;2023-03-12T10:54:35;7.80;99.90
19025;DHT22;9645;51.448;6.260;2023-03-12T10:57:03;7.90;99.90
19025;DHT22;9645;51.448;6.260;2023-03-12T10:59:32;8.00;99.90
19025;DHT22;9645;51.448;6.260;2023-03-12T11:01:59;8.10;99.90
19025;DHT22;9645;51.448;6.260;2023-03-12T11:04:28;8.30;99.90
19025;DHT22;9645;51.448;6.260;2023-03-12T11:07:15;8.50;99.90
19025;DHT22;9645;51.448;6.260;2023-03-12T11:09:44;8.60;99.90
19025;DHT22;9645;51.448;6.260;2023-03-12T11:12:25;8.70;99.90
19025;DHT22;9645;51.448;6.260;2023-03-12T11:14:52;8.90;99.90
19025;DHT22;9645;51.448;6.260;2023-03-12T11:17:22;9.20;99.90
19025;DHT22;9645;51.448;6.260;2023-03-12T11:19:49;9.70;99.90
19025;DHT22;9645;51.448;6.260;2023-03-12T11:22:28;10.20;99.90
19025;DHT22;9645;51.448;6.260;2023-03-12T11:24:57;10.40;99.90
19025;DHT22;9645;51.448;6.260;2023-03-12T11:27:32;10.30;99.90
19025;DHT22;9645;51.448;6.260;2023-03-12T11:30:05;10.20;99.90
19025;DHT22;9645;51.448;6.260;2023-03-12T11:32:36;9.90;99.90
19025;DHT22;9645;51.448;6.260;2023-03-12T11:35:09;9.80;99.90
19025;DHT22;9645;51.448;6.260;2023-03-12T11:37:48;9.70;99.90
19025;DHT22;9645;51.448;6.260;2023-03-12T11:40:24;9.70;99.90
19025;DHT22;9645;51.448;6.260;2023-03-12T11:43:06;9.60;99.90
19025;DHT22;9645;51.448;6.260;2023-03-12T11:45:45;9.60;99.90
19025;DHT22;9645;51.448;6.260;2023-03-12T11:48:20;9.60;99.90
19025;DHT22;9645;51.448;6.260;2023-03-12T11:51:00;9.50;99.90
19025;DHT22;9645;51.448;6.260;2023-03-12T11:53:40;9.50;99.90
19025;DHT22;9645;51.448;6.260;2023-03-12T11:56:23;9.50;99.90
19025;DHT22;9645;51.448;6.260;2023-03-12T11:59:00;11.10;99.90
19025;DHT22;9645;51.448;6.260;2023-03-12T12:01:36;9.40;99.90
19025;DHT22;9645;51.448;6.260;2023-03-12T12:04:17;9.50;99.90
19025;DHT22;9645;51.448;6.260;2023-03-12T12:06:59;9.50;99.90
19025;DHT22;9645;51.448;6.260;2023-03-12T12:09:34;9.60;99.90
19025;DHT22;9645;51.448;6.260;2023-03-12T12:12:16;9.70;99.90
19025;DHT22;9645;51.448;6.260;2023-03-12T12:14:56;9.70;99.90
19025;DHT22;9645;51.448;6.260;2023-03-12T12:17:36;9.80;99.90
19025;DHT22;9645;51.448;6.260;2023-03-12T12:20:28;9.90;99.90
19025;DHT22;9645;51.448;6.260;2023-03-12T12:23:06;10.00;99.90
19025;DHT22;9645;51.448;6.260;2023-03-12T12:25:54;10.00;99.90
19025;DHT22;9645;51.448;6.260;2023-03-12T12:28:53;10.10;99.90
19025;DHT22;9645;51.448;6.260;2023-03-12T12:31:29;10.40;99.90
19025;DHT22;9645;51.448;6.260;2023-03-12T12:40:17;10.90;99.90
19025;DHT22;9645;51.448;6.260;2023-03-12T12:42:57;11.50;99.90
19025;DHT22;9645;51.448;6.260;2023-03-12T12:45:27;12.10;99.90
19025;DHT22;9645;51.448;6.260;2023-03-12T12:47:57;12.10;99.90
19025;DHT22;9645;51.448;6.260;2023-03-12T12:50:30;12.30;99.90
19025;DHT22;9645;51.448;6.260;2023-03-12T12:53:04;12.50;99.90
19025;DHT22;9645;51.448;6.260;2023-03-12T12:55:38;12.50;99.90
19025;DHT22;9645;51.448;6.260;2023-03-12T12:58:12;12.70;99.90
19025;DHT22;9645;51.448;6.260;2023-03-12T13:00:47;12.80;99.90
19025;DHT22;9645;51.448;6.260;2023-03-12T13:03:17;12.90;99.90
19025;DHT22;9645;51.448;6.260;2023-03-12T13:05:52;12.90;99.90
19025;DHT22;9645;51.448;6.260;2023-03-12T13:08:58;12.70;99.90
19025;DHT22;9645;51.448;6.260;2023-03-12T13:11:28;12.70;99.90
19025;DHT22;9645;51.448;6.260;2023-03-12T13:17:08;13.00;99.90
19025;DHT22;9645;51.448;6.260;2023-03-12T13:19:45;13.20;99.90
19025;DHT22;9645;51.448;6.260;2023-03-12T13:22:20;13.20;99.90
19025;DHT22;9645;51.448;6.260;2023-03-12T13:24:55;13.10;99.90
19025;DHT22;9645;51.448;6.260;2023-03-12T13:27:28;13.00;99.90
19025;DHT22;9645;51.448;6.260;2023-03-12T13:29:55;12.60;99.90
19025;DHT22;9645;51.448;6.260;2023-03-12T13:35:31;12.20;99.90
19025;DHT22;9645;51.448;6.260;2023-03-12T13:38:01;12.30;99.90
19025;DHT22;9645;51.448;6.260;2023-03-12T13:41:02;12.40;99.90
19025;DHT22;9645;51.448;6.260;2023-03-12T13:43:39;12.40;99.90
19025;DHT22;9645;51.448;6.260;2023-03-12T13:46:21;12.50;99.90
19025;DHT22;9645;51.448;6.260;2023-03-12T13:48:58;12.50;99.90
19025;DHT22;9645;51.448;6.260;2023-03-12T13:51:25;12.50;99.90
19025;DHT22;9645;51.448;6.260;2023-03-12T13:53:54;12.40;99.90
19025;DHT22;9645;51.448;6.260;2023-03-12T13:56:26;12.50;99.90
19025;DHT22;9645;51.448;6.260;2023-03-12T13:58:56;12.40;99.90
19025;DHT22;9645;51.448;6.260;2023-03-12T14:01:28;12.40;99.90
19025;DHT22;9645;51.448;6.260;2023-03-12T14:03:59;12.30;99.90
19025;DHT22;9645;51.448;6.260;2023-03-12T14:06:29;12.30;99.90
19025;DHT22;9645;51.448;6.260;2023-03-12T14:09:09;12.30;99.90
19025;DHT22;9645;51.448;6.260;2023-03-12T14:11:53;12.30;99.90
19025;DHT22;9645;51.448;6.260;2023-03-12T14:14:44;12.40;99.90
19025;DHT22;9645;51.448;6.260;2023-03-12T14:17:16;12.40;99.90
19025;DHT22;9645;51.448;6.260;2023-03-12T14:19:50;12.50;99.90
19025;DHT22;9645;51.448;6.260;2023-03-12T14:22:18;12.50;99.90
19025;DHT22;9645;51.448;6.260;2023-03-12T14:24:50;12.50;99.90
19025;DHT22;9645;51.448;6.260;2023-03-12T14:27:23;12.70;99.90
19025;DHT22;9645;51.448;6.260;2023-03-12T14:29:55;12.70;99.90
19025;DHT22;9645;51.448;6.260;2023-03-12T14:32:26;12.90;99.90
19025;DHT22;9645;51.448;6.260;2023-03-12T14:35:01;13.00;99.90
19025;DHT22;9645;51.448;6.260;2023-03-12T14:37:39;13.00;99.90
19025;DHT22;9645;51.448;6.260;2023-03-12T14:40:18;12.80;99.90
19025;DHT22;9645;51.448;6.260;2023-03-12T14:42:46;12.70;99.90
19025;DHT22;9645;51.448;6.260;2023-03-12T14:45:16;12.50;99.90
19025;DHT22;9645;51.448;6.260;2023-03-12T14:47:45;12.40;99.90
19025;DHT22;9645;51.448;6.260;2023-03-12T14:50:20;12.30;99.90
19025;DHT22;9645;51.448;6.260;2023-03-12T14:52:47;12.20;99.90
19025;DHT22;9645;51.448;6.260;2023-03-12T14:55:17;12.20;99.90
19025;DHT22;9645;51.448;6.260;2023-03-12T14:57:45;12.10;99.90
19025;DHT22;9645;51.448;6.260;2023-03-12T15:00:22;12.00;99.90
19025;DHT22;9645;51.448;6.260;2023-03-12T15:02:51;12.00;99.90
19025;DHT22;9645;51.448;6.260;2023-03-12T15:05:21;11.90;99.90
19025;DHT22;9645;51.448;6.260;2023-03-12T15:07:50;11.80;99.90
19025;DHT22;9645;51.448;6.260;2023-03-12T15:10:21;11.70;99.90
19025;DHT22;9645;51.448;6.260;2023-03-12T15:12:49;11.80;99.90
19025;DHT22;9645;51.448;6.260;2023-03-12T15:15:28;11.70;99.90
19025;DHT22;9645;51.448;6.260;2023-03-12T15:17:56;11.80;99.90
19025;DHT22;9645;51.448;6.260;2023-03-12T15:20:25;11.70;99.90
19025;DHT22;9645;51.448;6.260;2023-03-12T15:22:52;11.70;99.90
19025;DHT22;9645;51.448;6.260;2023-03-12T15:25:21;11.70;99.90
19025;DHT22;9645;51.448;6.260;2023-03-12T15:27:58;11.80;99.90
19025;DHT22;9645;51.448;6.260;2023-03-12T15:30:27;11.90;99.90
19025;DHT22;9645;51.448;6.260;2023-03-12T15:33:08;11.90;99.90
19025;DHT22;9645;51.448;6.260;2023-03-12T15:35:39;11.90;99.90
19025;DHT22;9645;51.448;6.260;2023-03-12T15:38:13;11.80;99.90
19025;DHT22;9645;51.448;6.260;2023-03-12T15:40:47;11.90;99.90
19025;DHT22;9645;51.448;6.260;2023-03-12T15:43:16;11.80;99.90
19025;DHT22;9645;51.448;6.260;2023-03-12T15:45:46;11.90;99.90
19025;DHT22;9645;51.448;6.260;2023-03-12T15:48:26;11.90;99.90
19025;DHT22;9645;51.448;6.260;2023-03-12T15:50:55;11.90;99.90
19025;DHT22;9645;51.448;6.260;2023-03-12T15:53:28;11.90;99.90
19025;DHT22;9645;51.448;6.260;2023-03-12T15:56:04;11.80;99.90
19025;DHT22;9645;51.448;6.260;2023-03-12T15:58:33;11.80;99.90
19025;DHT22;9645;51.448;6.260;2023-03-12T16:01:09;11.80;99.90
19025;DHT22;9645;51.448;6.260;2023-03-12T16:03:36;11.80;99.90
19025;DHT22;9645;51.448;6.260;2023-03-12T16:06:07;11.90;99.90
19025;DHT22;9645;51.448;6.260;2023-03-12T16:08:39;11.80;99.90
19025;DHT22;9645;51.448;6.260;2023-03-12T16:11:13;11.80;99.90
19025;DHT22;9645;51.448;6.260;2023-03-12T16:13:41;11.70;99.90
19025;DHT22;9645;51.448;6.260;2023-03-12T16:16:11;11.70;99.90
19025;DHT22;9645;51.448;6.260;2023-03-12T16:18:39;11.70;99.90
19025;DHT22;9645;51.448;6.260;2023-03-12T16:21:11;11.70;99.90
19025;DHT22;9645;51.448;6.260;2023-03-12T16:23:40;11.60;99.90
19025;DHT22;9645;51.448;6.260;2023-03-12T16:26:13;11.60;99.90
19025;DHT22;9645;51.448;6.260;2023-03-12T16:28:42;11.60;99.90